Time;durP1;ratioP1;P1;durP2;ratioP2;P2;SDS_P1;SDS_P2;PMS_P1;PMS_P2;Temp;Humidity;BMP_temperature;BMP_pressure;BME280_temperature;BME280_humidity;BME280_pressure;Samples;Min_cycle;Max_cycle;Signal;HPM_P1;HPM_P2
2020/12/19 00:02:32;;;;;;;5.03;4.13;;;;;;;7.61;98.80;101729.53;6028394;29;20711;-76
2020/12/19 00:05:35;;;;;;;4.50;4.03;;;;;;;7.67;98.40;101743.28;6028872;29;20191;-77
2020/12/19 00:08:38;;;;;;;5.03;4.10;;;;;;;7.67;98.83;101736.97;6027749;29;20629;-79
2020/12/19 00:11:42;;;;;;;9.85;3.83;;;;;;;7.55;99.40;101729.22;6018643;29;20232;-78
2020/12/19 00:14:46;;;;;;;4.33;4.00;;;;;;;7.58;99.03;101737.00;6028553;29;20243;-77
2020/12/19 00:17:50;;;;;;;5.13;4.33;;;;;;;7.68;99.51;101725.09;6030122;29;20302;-77
2020/12/19 00:20:54;;;;;;;4.50;4.10;;;;;;;7.70;99.16;101723.06;6031811;29;20316;-79
2020/12/19 00:23:57;;;;;;;8.77;4.27;;;;;;;7.55;98.87;101710.19;6033854;29;20686;-77
2020/12/19 00:27:01;;;;;;;7.67;4.07;;;;;;;7.63;99.56;101722.06;6030955;29;20665;-78
2020/12/19 00:30:05;;;;;;;8.27;4.43;;;;;;;7.41;99.13;101675.66;6032350;29;20203;-80
2020/12/19 00:33:19;;;;;;;6.13;4.20;;;;;;;7.79;98.28;101711.09;6019190;29;20590;-79
2020/12/19 00:36:24;;;;;;;4.63;4.15;;;;;;;7.73;98.52;101730.84;6025723;29;20215;-80
2020/12/19 00:39:27;;;;;;;4.75;4.30;;;;;;;7.64;98.37;101715.59;6029496;29;20203;-78
2020/12/19 00:42:31;;;;;;;4.60;4.18;;;;;;;7.57;99.24;101724.44;6031389;29;20257;-78
2020/12/19 00:45:34;;;;;;;8.07;4.40;;;;;;;7.51;99.37;101719.75;6046766;29;20174;-80
2020/12/19 00:48:39;;;;;;;6.03;4.33;;;;;;;7.58;99.44;101715.28;6037662;29;20206;-77
2020/12/19 00:51:43;;;;;;;4.97;4.50;;;;;;;7.28;100.00;101697.09;6031861;29;20233;-78
2020/12/19 00:54:46;;;;;;;9.25;5.00;;;;;;;7.49;99.85;101729.94;6031591;29;20239;-80
2020/12/19 00:57:50;;;;;;;7.60;4.40;;;;;;;7.62;98.97;101731.22;6031789;29;20642;-78
2020/12/19 01:00:54;;;;;;;15.27;4.90;;;;;;;7.44;100.00;101728.75;6030685;29;20219;-80
2020/12/19 01:04:00;;;;;;;5.93;5.03;;;;;;;7.50;99.93;101723.47;6027944;29;20211;-78
2020/12/19 01:07:03;;;;;;;4.77;4.13;;;;;;;7.57;99.59;101712.75;6030176;29;20202;-79
2020/12/19 01:10:11;;;;;;;4.70;4.23;;;;;;;7.62;99.33;101731.22;6031782;29;20202;-78
2020/12/19 01:13:20;;;;;;;6.68;4.55;;;;;;;7.67;99.08;101717.97;6031771;29;20241;-76
2020/12/19 01:16:26;;;;;;;7.07;4.57;;;;;;;7.74;98.30;101703.50;6031726;29;20282;-79
2020/12/19 01:19:30;;;;;;;5.57;4.50;;;;;;;7.91;97.32;101709.72;6031423;29;20199;-78
2020/12/19 01:22:33;;;;;;;10.02;4.57;;;;;;;7.89;97.22;101707.16;6029793;29;20372;-79
2020/12/19 01:25:37;;;;;;;4.75;4.25;;;;;;;7.73;98.46;101700.97;6029162;29;20347;-78
2020/12/19 01:28:40;;;;;;;5.03;4.57;;;;;;;7.70;97.29;101674.16;6026555;29;20247;-77
2020/12/19 01:31:44;;;;;;;9.80;4.65;;;;;;;7.76;97.82;101711.47;6030651;29;20708;-77
2020/12/19 01:34:48;;;;;;;8.00;4.63;;;;;;;7.69;98.38;101705.91;6028013;29;20228;-77
2020/12/19 01:37:51;;;;;;;8.75;4.88;;;;;;;7.49;99.25;101694.63;6030504;29;20659;-79
2020/12/19 01:40:57;;;;;;;11.80;5.20;;;;;;;7.62;99.15;101706.78;6033489;29;20592;-80
2020/12/19 01:44:03;;;;;;;5.18;4.63;;;;;;;7.76;98.19;101708.75;6027680;29;20249;-77
2020/12/19 01:47:11;;;;;;;8.98;4.78;;;;;;;7.73;97.69;101699.09;6032912;29;20207;-78
2020/12/19 01:50:15;;;;;;;6.80;5.10;;;;;;;7.78;97.61;101704.81;6031189;29;20230;-84
2020/12/19 01:53:20;;;;;;;7.30;4.93;;;;;;;7.74;97.15;101686.34;6048267;29;20409;-78
2020/12/19 01:56:41;;;;;;;7.10;5.18;;;;;;;7.86;97.11;101712.09;6030186;29;20234;-82
2020/12/19 01:59:44;;;;;;;5.18;4.63;;;;;;;7.73;97.71;101706.41;6030363;29;20211;-80
2020/12/19 02:02:47;;;;;;;11.23;5.25;;;;;;;7.76;97.69;101711.47;6023231;29;20737;-77
2020/12/19 02:05:52;;;;;;;6.30;4.78;;;;;;;7.77;98.05;101713.16;6030241;29;20202;-80
2020/12/19 02:08:56;;;;;;;7.43;5.03;;;;;;;7.61;97.94;101675.22;6026457;29;20214;-77
2020/12/19 02:11:59;;;;;;;13.00;5.63;;;;;;;7.60;97.60;101668.09;6013394;29;20252;-78
2020/12/19 02:15:03;;;;;;;9.70;4.80;;;;;;;7.67;97.44;101682.66;6024318;29;20206;-76
2020/12/19 02:18:13;;;;;;;7.68;4.80;;;;;;;7.67;97.50;101677.22;6029051;29;20199;-78
2020/12/19 02:21:17;;;;;;;11.05;5.30;;;;;;;7.61;97.64;101688.78;6027631;29;20374;-78
2020/12/19 02:24:21;;;;;;;8.55;5.25;;;;;;;7.32;98.21;101671.25;6028846;29;20251;-78
2020/12/19 02:27:25;;;;;;;8.07;4.63;;;;;;;7.66;97.39;101683.66;6028376;29;20672;-78
2020/12/19 02:30:28;;;;;;;6.78;4.70;;;;;;;7.66;97.08;101678.25;6029364;29;20207;-81
2020/12/19 02:33:37;;;;;;;12.15;5.05;;;;;;;7.66;97.65;101694.53;6029398;29;20558;-80
2020/12/19 02:36:43;;;;;;;6.97;4.80;;;;;;;7.67;97.28;101680.78;6021988;29;20259;-78
2020/12/19 02:39:48;;;;;;;6.68;5.00;;;;;;;7.73;97.06;101690.09;6029550;29;20217;-78
2020/12/19 02:42:51;;;;;;;9.63;5.10;;;;;;;7.80;96.57;101685.66;6029711;29;20297;-78
2020/12/19 02:45:56;;;;;;;7.63;4.73;;;;;;;7.71;97.25;101679.41;6029368;29;20599;-78
2020/12/19 02:48:59;;;;;;;5.73;5.10;;;;;;;7.74;96.64;101675.47;6029633;29;20212;-82
2020/12/19 02:52:02;;;;;;;7.30;4.90;;;;;;;7.67;97.11;101663.66;6028909;29;20238;-79
2020/12/19 02:55:12;;;;;;;6.85;4.88;;;;;;;7.70;96.68;101657.88;6028171;29;20429;-80
2020/12/19 02:58:21;;;;;;;8.53;5.07;;;;;;;7.70;97.01;101674.16;6058798;29;20202;-78
2020/12/19 03:01:28;;;;;;;5.33;4.83;;;;;;;7.62;97.92;101676.91;6028883;29;20582;-78
2020/12/19 03:04:32;;;;;;;6.18;5.00;;;;;;;7.64;98.15;101669.44;6018888;29;20227;-79
2020/12/19 03:07:35;;;;;;;10.68;5.38;;;;;;;7.61;98.00;101669.78;6025275;29;20421;-78
2020/12/19 03:10:39;;;;;;;10.05;5.50;;;;;;;7.68;97.66;101670.78;6028886;29;20203;-78
2020/12/19 03:13:43;;;;;;;10.17;5.00;;;;;;;7.63;98.14;101665.03;6029001;29;20202;-78
2020/12/19 03:16:47;;;;;;;11.97;5.13;;;;;;;7.66;97.91;101667.38;6029091;29;20270;-79
2020/12/19 03:19:50;;;;;;;7.13;5.30;;;;;;;7.66;97.76;101656.50;6029205;29;20286;-78
2020/12/19 03:22:53;;;;;;;13.55;5.65;;;;;;;7.68;97.80;101659.91;6027894;29;20568;-79
2020/12/19 03:25:58;;;;;;;9.88;5.32;;;;;;;7.61;98.22;101658.91;6023205;29;20255;-78
2020/12/19 03:29:01;;;;;;;8.63;4.88;;;;;;;7.52;98.65;101656.22;6028302;29;20197;-78
2020/12/19 03:32:05;;;;;;;9.93;5.43;;;;;;;7.65;98.20;101665.69;6028945;29;20210;-78
2020/12/19 03:35:12;;;;;;;14.37;5.97;;;;;;;7.75;97.91;101660.88;6030195;29;20514;-78
2020/12/19 03:38:20;;;;;;;5.97;5.43;;;;;;;7.72;98.02;101666.66;6025019;29;20206;-80
2020/12/19 03:41:24;;;;;;;10.77;5.50;;;;;;;7.77;97.21;101670.56;6028816;29;20209;-78
2020/12/19 03:44:28;;;;;;;10.02;5.72;;;;;;;7.76;97.15;101677.00;6029292;29;20199;-79
2020/12/19 03:47:31;;;;;;;7.50;5.38;;;;;;;7.76;97.49;101679.72;6028656;29;20321;-78
2020/12/19 03:50:34;;;;;;;8.30;5.43;;;;;;;7.79;97.46;101667.66;6029327;29;20227;-78
2020/12/19 03:53:37;;;;;;;10.07;5.70;;;;;;;7.82;97.35;101676.28;6029474;29;20238;-79
2020/12/19 03:56:42;;;;;;;16.63;6.25;;;;;;;7.79;97.75;101683.94;6032806;29;20191;-78
2020/12/19 03:59:45;;;;;;;8.55;6.07;;;;;;;7.81;97.34;101676.44;6033205;29;20198;-78
2020/12/19 04:02:48;;;;;;;7.53;5.55;;;;;;;7.93;96.78;101675.03;6042114;29;20340;-82
2020/12/19 04:05:52;;;;;;;8.77;6.60;;;;;;;7.76;97.68;101673.44;6043463;29;20209;-80
2020/12/19 04:08:55;;;;;;;17.13;6.10;;;;;;;7.67;98.83;101674.50;6031937;29;20232;-78
2020/12/19 04:12:00;;;;;;;9.10;6.10;;;;;;;7.64;98.70;101664.00;6028325;29;20681;-78
2020/12/19 04:15:08;;;;;;;8.33;6.27;;;;;;;7.67;99.13;101669.94;6033241;29;20549;-79
2020/12/19 04:18:24;;;;;;;7.43;5.95;;;;;;;7.72;99.11;101683.81;6032438;29;20211;-79
2020/12/19 04:21:27;;;;;;;7.80;6.23;;;;;;;7.58;98.28;101643.81;6032644;29;20207;-78
2020/12/19 04:24:30;;;;;;;9.02;6.55;;;;;;;7.74;98.66;101680.91;6032606;29;20593;-78
2020/12/19 04:27:34;;;;;;;8.07;5.80;;;;;;;7.79;98.33;101692.94;6032000;29;20722;-78
2020/12/19 04:30:38;;;;;;;7.97;6.25;;;;;;;7.78;98.87;101693.13;6032919;29;20718;-78
2020/12/19 04:33:41;;;;;;;7.32;6.60;;;;;;;7.84;97.94;101686.97;6031311;29;20578;-78
2020/12/19 04:36:44;;;;;;;6.45;5.82;;;;;;;7.96;97.77;101682.84;6032055;29;20239;-80
2020/12/19 04:39:48;;;;;;;6.75;6.15;;;;;;;7.95;97.15;101664.84;6032139;29;20651;-80
2020/12/19 04:42:53;;;;;;;7.47;6.65;;;;;;;7.77;98.47;101664.25;6010177;29;20224;-79
2020/12/19 04:45:56;;;;;;;14.02;6.70;;;;;;;7.78;98.67;101668.69;6031770;29;20206;-79
2020/12/19 04:49:00;;;;;;;9.13;6.57;;;;;;;7.80;98.48;101669.34;6031620;29;20195;-79
2020/12/19 04:52:04;;;;;;;9.98;5.95;;;;;;;7.77;98.35;101677.84;6032204;29;20226;-79
2020/12/19 04:55:12;;;;;;;7.75;6.60;;;;;;;7.78;97.84;101660.53;6031899;29;20295;-77
2020/12/19 04:58:18;;;;;;;13.65;6.85;;;;;;;7.71;97.81;101664.97;6031243;29;20210;-79
2020/12/19 05:01:22;;;;;;;8.02;6.38;;;;;;;7.92;97.64;101682.34;6030565;29;20209;-77
2020/12/19 05:04:25;;;;;;;11.40;6.70;;;;;;;7.98;96.56;101672.63;6029954;29;20611;-79
2020/12/19 05:07:29;;;;;;;9.52;6.32;;;;;;;7.79;97.92;101683.94;6031020;29;20206;-79
2020/12/19 05:10:33;;;;;;;9.55;6.53;;;;;;;7.81;97.88;101681.88;6052006;29;20259;-78
2020/12/19 05:13:39;;;;;;;10.02;6.88;;;;;;;7.69;97.73;101661.59;6030566;29;20210;-78
2020/12/19 05:16:42;;;;;;;9.07;7.20;;;;;;;7.80;97.94;101681.06;6030810;29;20202;-78
2020/12/19 05:19:46;;;;;;;11.77;6.78;;;;;;;7.77;98.51;101691.44;6032353;29;20202;-77
2020/12/19 05:22:51;;;;;;;11.02;6.75;;;;;;;7.84;97.76;101676.09;6014392;29;20234;-78
2020/12/19 05:25:56;;;;;;;9.13;6.97;;;;;;;7.90;97.10;101664.53;6031088;29;20206;-78
2020/12/19 05:29:20;;;;;;;13.48;7.53;;;;;;;7.70;98.13;101674.16;6030777;29;20198;-78
2020/12/19 05:32:25;;;;;;;12.43;7.68;;;;;;;7.76;97.96;101678.84;6029798;29;20278;-78
2020/12/19 05:35:28;;;;;;;9.85;7.35;;;;;;;7.79;97.68;101683.94;6027089;29;20215;-78
2020/12/19 05:38:37;;;;;;;11.55;7.93;;;;;;;7.65;97.77;101665.69;6029830;29;20559;-80
2020/12/19 05:41:40;;;;;;;11.30;7.60;;;;;;;7.78;98.37;101683.09;6030742;29;20282;-78
2020/12/19 05:44:44;;;;;;;12.63;7.20;;;;;;;7.73;98.21;101690.09;6027866;29;20191;-78
2020/12/19 05:47:49;;;;;;;16.55;8.20;;;;;;;7.81;97.77;101692.75;6029665;29;20334;-78
2020/12/19 05:50:53;;;;;;;10.50;7.20;;;;;;;7.94;96.77;101683.00;6025877;29;20275;-79
2020/12/19 05:54:03;;;;;;;11.80;7.78;;;;;;;7.94;96.66;101661.25;6030073;29;20647;-78
2020/12/19 05:57:09;;;;;;;9.77;6.97;;;;;;;7.65;98.02;101677.41;6029241;29;20219;-79
2020/12/19 06:00:15;;;;;;;13.23;8.40;;;;;;;7.69;98.30;101678.75;6029606;29;20729;-78
2020/12/19 06:03:35;;;;;;;13.40;7.45;;;;;;;7.16;97.31;101572.78;6030308;29;20270;-78
2020/12/19 06:06:39;;;;;;;13.73;7.90;;;;;;;7.86;97.21;101679.47;6029684;29;20294;-78
2020/12/19 06:09:44;;;;;;;12.38;7.80;;;;;;;7.86;97.35;101679.47;6028180;29;20599;-76
2020/12/19 06:12:59;;;;;;;11.55;7.72;;;;;;;7.84;97.46;101686.97;6029592;29;20597;-78
2020/12/19 06:16:08;;;;;;;14.35;8.00;;;;;;;7.68;98.05;101676.22;6045685;29;20254;-81
2020/12/19 06:19:19;;;;;;;12.90;7.80;;;;;;;7.72;97.99;101691.13;6037469;29;20258;-79
2020/12/19 06:22:28;;;;;;;14.43;7.90;;;;;;;7.83;97.25;101669.00;6028559;29;20394;-80
2020/12/19 06:25:43;;;;;;;14.52;7.70;;;;;;;7.79;97.30;101667.66;6029672;29;20230;-78
2020/12/19 06:28:50;;;;;;;11.73;8.10;;;;;;;7.95;96.26;101672.97;6029121;29;20202;-78
2020/12/19 06:31:59;;;;;;;16.90;8.00;;;;;;;7.52;97.44;101630.97;6028968;29;20203;-79
2020/12/19 06:35:05;;;;;;;15.18;8.93;;;;;;;7.67;98.40;101663.66;6029040;29;20230;-78
2020/12/19 06:38:43;;;;;;;12.33;8.70;;;;;;;7.76;98.04;101676.16;6024778;29;20225;-80
2020/12/19 06:41:49;;;;;;;13.32;8.65;;;;;;;7.71;98.39;101682.13;6029073;29;20274;-78
2020/12/19 06:44:53;;;;;;;13.27;8.43;;;;;;;7.74;97.72;101664.63;6028795;29;20215;-79
2020/12/19 06:47:57;;;;;;;11.38;8.32;;;;;;;7.78;97.12;101660.53;6012622;29;20210;-79
2020/12/19 06:51:02;;;;;;;11.88;8.77;;;;;;;7.85;97.01;101666.94;6029433;29;20230;-76
2020/12/19 06:54:08;;;;;;;19.27;9.13;;;;;;;7.80;97.41;101674.78;6015489;29;20242;-78
2020/12/19 06:57:23;;;;;;;15.80;8.73;;;;;;;7.78;97.97;101676.84;6027745;29;20665;-77
2020/12/19 07:00:30;;;;;;;15.30;9.40;;;;;;;7.71;98.24;101689.41;6028884;29;20245;-76
2020/12/19 07:03:42;;;;;;;18.20;8.70;;;;;;;7.73;97.50;101669.19;6028623;29;20211;-79
2020/12/19 07:07:01;;;;;;;14.02;9.07;;;;;;;7.77;97.16;101658.84;6028535;29;20337;-78
2020/12/19 07:10:05;;;;;;;19.13;9.85;;;;;;;7.68;98.20;101693.34;6027887;29;20226;-79
2020/12/19 07:13:14;;;;;;;15.15;8.68;;;;;;;7.88;97.73;101683.75;6029445;29;20202;-78
2020/12/19 07:16:47;;;;;;;17.83;9.10;;;;;;;7.86;97.47;101679.47;6028233;29;20335;-79
2020/12/19 07:19:58;;;;;;;16.80;8.98;;;;;;;7.87;96.72;101686.63;6030550;29;20242;-84
2020/12/19 07:23:01;;;;;;;13.48;8.98;;;;;;;7.88;97.49;101688.31;6045033;29;20214;-78
2020/12/19 07:26:06;;;;;;;14.63;9.55;;;;;;;7.83;97.24;101696.97;6028566;29;20195;-79
2020/12/19 07:29:20;;;;;;;17.10;9.30;;;;;;;7.77;98.58;101696.88;6034323;29;20195;-78
2020/12/19 07:32:24;;;;;;;14.52;9.05;;;;;;;7.94;97.53;101687.59;6033811;29;20214;-80
2020/12/19 07:35:29;;;;;;;14.05;9.23;;;;;;;7.92;96.72;101689.66;6008138;29;20219;-77
2020/12/19 07:38:33;;;;;;;11.95;8.43;;;;;;;7.94;96.56;101698.47;6032900;29;20254;-76
2020/12/19 07:41:36;;;;;;;16.33;9.38;;;;;;;7.91;96.89;101693.41;6033470;29;20195;-78
2020/12/19 07:44:40;;;;;;;21.05;9.52;;;;;;;7.86;96.94;101693.06;6031411;29;20222;-78
2020/12/19 07:47:48;;;;;;;16.63;9.25;;;;;;;8.06;96.23;101702.47;6033354;29;20237;-79
2020/12/19 07:50:52;;;;;;;18.40;9.65;;;;;;;8.00;96.40;101692.31;6031991;29;20222;-80
2020/12/19 07:53:55;;;;;;;13.90;9.25;;;;;;;7.96;96.99;101699.16;6032433;29;20598;-77
2020/12/19 07:56:59;;;;;;;14.65;9.05;;;;;;;8.04;96.43;101699.06;6028244;29;20611;-78
2020/12/19 08:00:06;;;;;;;10.13;8.80;;;;;;;7.88;97.49;101693.75;6032901;29;20203;-78
2020/12/19 08:03:19;;;;;;;15.38;9.30;;;;;;;7.96;97.67;101696.44;6016011;29;20214;-77
2020/12/19 08:06:23;;;;;;;13.63;8.85;;;;;;;7.98;96.97;101687.06;6032264;29;20282;-78
2020/12/19 08:09:27;;;;;;;17.75;8.77;;;;;;;8.00;97.06;101697.75;6033292;29;20240;-77
2020/12/19 08:12:31;;;;;;;14.23;8.60;;;;;;;7.71;97.45;101654.09;6028467;29;20729;-79
2020/12/19 08:15:34;;;;;;;11.88;8.55;;;;;;;8.09;96.94;101702.09;6036393;29;20267;-77
2020/12/19 08:18:40;;;;;;;16.63;9.05;;;;;;;8.08;97.20;101700.41;6030558;29;20266;-78
2020/12/19 08:21:47;;;;;;;12.50;8.52;;;;;;;8.01;97.41;101710.31;6031446;29;20203;-77
2020/12/19 08:24:51;;;;;;;15.20;8.63;;;;;;;7.91;98.18;101712.44;6031746;29;20262;-79
2020/12/19 08:27:54;;;;;;;23.75;8.73;;;;;;;7.94;98.13;101714.75;6058125;29;20259;-80
2020/12/19 08:30:57;;;;;;;9.82;8.32;;;;;;;8.03;98.00;101720.00;6033010;29;20213;-79
2020/12/19 08:34:03;;;;;;;11.38;8.15;;;;;;;7.74;99.17;101718.94;6032210;29;20419;-78
2020/12/19 08:37:08;;;;;;;12.65;8.52;;;;;;;7.97;98.55;101715.25;6031613;29;20202;-78
2020/12/19 08:40:23;;;;;;;10.45;8.20;;;;;;;8.06;97.61;101707.91;6031118;29;20214;-78
2020/12/19 08:43:32;;;;;;;14.57;8.57;;;;;;;7.85;98.92;101704.97;6034894;29;20270;-79
2020/12/19 08:46:35;;;;;;;9.80;7.75;;;;;;;7.98;98.76;101699.81;6033467;29;20674;-79
2020/12/19 08:49:39;;;;;;;12.52;7.95;;;;;;;7.84;99.62;101692.41;6028960;29;20208;-79
2020/12/19 08:52:43;;;;;;;9.77;8.13;;;;;;;7.76;99.96;101706.03;6033959;29;20245;-78
2020/12/19 08:55:47;;;;;;;12.35;7.68;;;;;;;7.93;99.89;101718.53;6032825;29;20203;-76
2020/12/19 08:58:53;;;;;;;9.57;7.25;;;;;;;7.89;99.23;101703.56;6028387;29;20224;-79
2020/12/19 09:01:57;;;;;;;9.25;7.85;;;;;;;7.95;99.18;101700.16;6032181;29;20787;-79
2020/12/19 09:05:00;;;;;;;10.05;7.65;;;;;;;7.99;99.63;101717.78;6025831;29;22180;-78
2020/12/19 09:08:06;;;;;;;14.23;7.60;;;;;;;7.92;99.80;101717.66;6025301;29;20206;-79
2020/12/19 09:11:23;;;;;;;10.02;7.00;;;;;;;7.87;99.11;101697.47;6021979;29;20610;-80
2020/12/19 09:14:27;;;;;;;12.35;6.90;;;;;;;8.12;99.17;101715.31;6024308;29;20200;-79
2020/12/19 09:17:31;;;;;;;7.82;7.05;;;;;;;8.15;98.33;101714.97;6022600;29;20593;-79
2020/12/19 09:20:34;;;;;;;11.15;7.03;;;;;;;8.13;98.76;101708.88;6022505;29;20259;-80
2020/12/19 09:23:38;;;;;;;8.02;6.93;;;;;;;8.13;98.83;101720.59;6020175;29;20222;-78
2020/12/19 09:26:44;;;;;;;7.85;6.82;;;;;;;8.13;99.37;101719.75;6026577;29;20206;-80
2020/12/19 09:29:47;;;;;;;11.43;6.75;;;;;;;8.12;99.45;101715.31;6020311;29;20222;-79
2020/12/19 09:32:51;;;;;;;10.07;7.35;;;;;;;7.92;100.00;101714.09;6035102;29;20187;-84
2020/12/19 09:35:54;;;;;;;8.02;6.43;;;;;;;7.93;100.00;101680.47;6026491;29;20286;-77
2020/12/19 09:38:58;;;;;;;8.50;6.60;;;;;;;8.10;98.69;101688.34;6024724;29;20206;-78
2020/12/19 09:42:02;;;;;;;6.88;6.28;;;;;;;8.25;98.70;101707.44;6022001;29;20214;-76
2020/12/19 09:45:07;;;;;;;8.77;6.68;;;;;;;8.09;99.71;101696.66;6024497;29;20225;-77
2020/12/19 09:48:16;;;;;;;8.88;7.32;;;;;;;8.12;99.61;101704.44;6022774;29;20249;-79
2020/12/19 09:51:19;;;;;;;15.98;7.50;;;;;;;7.98;100.00;101702.53;6021978;29;20222;-79
2020/12/19 09:54:23;;;;;;;14.57;8.45;;;;;;;8.07;100.00;101698.72;6024527;29;20329;-78
2020/12/19 09:57:28;;;;;;;8.90;7.03;;;;;;;8.13;100.00;101708.88;6023343;29;20208;-78
2020/12/19 10:00:31;;;;;;;7.40;6.70;;;;;;;8.10;99.68;101698.34;6029798;29;20207;-81
2020/12/19 10:03:47;;;;;;;10.65;7.60;;;;;;;8.10;99.96;101692.94;6023903;29;20223;-79
2020/12/19 10:06:50;;;;;;;8.75;7.45;;;;;;;8.20;99.65;101704.41;6025349;29;20420;-78
2020/12/19 10:09:55;;;;;;;8.45;7.40;;;;;;;8.27;99.38;101699.97;6029578;29;20275;-79
2020/12/19 10:12:58;;;;;;;9.27;7.28;;;;;;;8.36;98.38;101709.75;6022735;29;20281;-78
2020/12/19 10:16:04;;;;;;;12.80;8.30;;;;;;;8.19;99.28;101692.69;6017970;29;20580;-78
2020/12/19 10:19:10;;;;;;;12.07;7.93;;;;;;;8.30;99.30;101715.91;6018041;29;20199;-78
2020/12/19 10:22:15;;;;;;;12.75;8.20;;;;;;;8.21;99.34;101703.38;6024586;29;20312;-78
2020/12/19 10:25:21;;;;;;;13.50;8.57;;;;;;;8.11;98.81;101667.44;6028136;29;20350;-79
2020/12/19 10:28:26;;;;;;;12.38;8.93;;;;;;;8.27;99.74;101716.28;6027095;29;20559;-77
2020/12/19 10:31:29;;;;;;;14.27;8.48;;;;;;;8.33;98.89;101693.81;6022620;29;20207;-78
2020/12/19 10:34:33;;;;;;;13.18;8.82;;;;;;;8.37;99.29;101711.44;6033941;29;20210;-78
2020/12/19 10:37:36;;;;;;;15.63;7.88;;;;;;;8.36;99.41;101715.22;6027884;29;20207;-80
2020/12/19 10:40:41;;;;;;;10.48;8.38;;;;;;;8.41;98.74;101720.09;6041841;29;20234;-77
2020/12/19 10:43:44;;;;;;;9.57;8.55;;;;;;;8.43;98.79;101716.16;6028339;29;20580;-79
2020/12/19 10:46:48;;;;;;;11.98;8.60;;;;;;;8.59;97.95;101713.31;6025482;29;20661;-78
2020/12/19 10:49:52;;;;;;;11.15;7.85;;;;;;;8.51;97.94;101723.41;6027880;29;20365;-79
2020/12/19 10:52:55;;;;;;;15.85;7.85;;;;;;;8.51;98.00;101713.38;6030845;29;20305;-80
2020/12/19 10:55:59;;;;;;;8.77;7.70;;;;;;;8.50;98.30;101721.75;6028070;29;20693;-80
2020/12/19 10:59:04;;;;;;;10.93;7.85;;;;;;;8.46;97.88;101699.50;6029143;29;20195;-78
2020/12/19 11:02:08;;;;;;;9.20;7.55;;;;;;;8.68;97.43;101714.06;6029259;29;20202;-79
2020/12/19 11:05:15;;;;;;;9.60;7.68;;;;;;;8.55;97.56;101709.25;6026184;29;20218;-77
2020/12/19 11:08:25;;;;;;;11.90;7.40;;;;;;;8.67;97.26;101713.25;6029778;29;20206;-79
2020/12/19 11:11:29;;;;;;;8.50;7.55;;;;;;;8.61;97.36;101713.97;6027358;29;20301;-77
2020/12/19 11:14:33;;;;;;;8.68;7.38;;;;;;;8.66;96.92;101718.84;6023034;29;20222;-76
2020/12/19 11:17:36;;;;;;;8.75;7.68;;;;;;;8.60;96.92;101712.28;6022432;29;20202;-78
2020/12/19 11:20:39;;;;;;;11.68;7.78;;;;;;;8.51;97.55;101713.38;6027141;29;20210;-78
2020/12/19 11:23:43;;;;;;;10.68;7.75;;;;;;;8.61;97.18;101718.56;6029401;29;20210;-78
2020/12/19 11:26:48;;;;;;;9.45;7.28;;;;;;;8.58;97.00;101711.63;6029756;29;20698;-78
2020/12/19 11:29:52;;;;;;;9.75;7.40;;;;;;;8.65;96.98;101717.19;6026718;29;20214;-78
2020/12/19 11:32:55;;;;;;;10.15;7.53;;;;;;;8.70;96.33;101723.78;6028147;29;20725;-76
2020/12/19 11:35:59;;;;;;;11.48;7.63;;;;;;;8.76;95.58;101712.13;6029688;29;20232;-79
2020/12/19 11:39:03;;;;;;;11.02;7.45;;;;;;;8.68;95.44;101720.38;6022177;29;20202;-78
2020/12/19 11:42:13;;;;;;;8.73;7.35;;;;;;;8.44;96.73;101701.56;6032855;29;20229;-80
2020/12/19 11:45:17;;;;;;;9.57;7.72;;;;;;;8.41;97.05;101707.34;6047591;29;20230;-82
2020/12/19 11:48:24;;;;;;;13.55;7.00;;;;;;;8.46;97.03;101702.19;6031718;29;20223;-80
2020/12/19 11:51:29;;;;;;;10.60;7.63;;;;;;;8.51;96.68;101699.78;6032212;29;20293;-78
2020/12/19 11:54:32;;;;;;;7.78;6.97;;;;;;;8.52;95.88;101706.94;6045806;29;20505;-86
2020/12/19 11:57:37;;;;;;;11.50;7.40;;;;;;;8.43;96.46;101705.28;6034326;29;20202;-78
2020/12/19 12:00:41;;;;;;;10.45;7.00;;;;;;;8.40;96.94;101713.81;6026857;29;20331;-79
2020/12/19 12:03:51;;;;;;;7.53;6.50;;;;;;;8.46;96.21;101712.22;6026707;29;20207;-79
2020/12/19 12:06:55;;;;;;;9.05;6.60;;;;;;;8.27;96.58;101705.41;6028104;29;20625;-80
2020/12/19 12:09:58;;;;;;;8.52;6.95;;;;;;;8.25;97.32;101710.16;6024099;29;20278;-78
2020/12/19 12:13:02;;;;;;;8.90;6.97;;;;;;;8.26;97.08;101711.84;6029988;29;20282;-77
2020/12/19 12:16:10;;;;;;;8.20;6.50;;;;;;;8.30;97.07;101713.19;6030803;29;20210;-78
2020/12/19 12:19:14;;;;;;;7.97;7.10;;;;;;;8.35;96.68;101716.22;6033564;29;20203;-78
2020/12/19 12:22:17;;;;;;;7.82;6.72;;;;;;;8.35;96.60;101713.50;6033197;29;20221;-75
2020/12/19 12:25:21;;;;;;;11.07;6.75;;;;;;;8.44;95.58;101712.44;6044314;29;20242;-77
2020/12/19 12:28:25;;;;;;;6.97;6.25;;;;;;;8.18;96.54;101707.31;6031552;29;20199;-77
2020/12/19 12:31:30;;;;;;;8.43;6.72;;;;;;;7.98;98.76;101711.53;6033754;29;20385;-80
2020/12/19 12:34:33;;;;;;;7.35;6.55;;;;;;;8.12;97.08;101716.19;6027155;29;20290;-78
2020/12/19 12:37:37;;;;;;;7.72;6.28;;;;;;;8.09;97.60;101718.41;6032032;29;20611;-82
2020/12/19 12:40:40;;;;;;;7.95;6.32;;;;;;;8.17;96.98;101712.91;6031859;29;20553;-82
2020/12/19 12:43:44;;;;;;;7.07;6.33;;;;;;;8.11;97.18;101721.81;6027982;29;20215;-76
2020/12/19 12:46:49;;;;;;;7.30;6.40;;;;;;;7.95;97.84;101716.47;6030711;29;20219;-80
2020/12/19 12:49:52;;;;;;;11.00;6.30;;;;;;;8.09;97.39;101723.84;6033522;29;20237;-84
2020/12/19 12:52:57;;;;;;;6.65;6.13;;;;;;;8.03;97.63;101730.88;6046094;29;20653;-80
2020/12/19 12:56:00;;;;;;;9.45;6.20;;;;;;;8.04;97.47;101726.25;6031795;29;20570;-77
2020/12/19 12:59:05;;;;;;;7.18;6.47;;;;;;;8.03;97.38;101724.56;6032878;29;20206;-78
2020/12/19 13:02:09;;;;;;;6.22;5.72;;;;;;;8.16;96.77;101713.97;6015155;29;20214;-77
2020/12/19 13:05:13;;;;;;;10.55;5.93;;;;;;;8.05;97.30;101733.38;6034915;29;20249;-79
2020/12/19 13:08:23;;;;;;;7.85;6.45;;;;;;;8.11;96.72;101732.69;6034749;29;20203;-81
2020/12/19 13:11:27;;;;;;;8.02;6.13;;;;;;;8.00;95.25;101692.31;6038542;29;20198;-78
2020/12/19 13:14:31;;;;;;;8.67;6.10;;;;;;;7.97;96.80;101720.69;6030628;29;20210;-77
2020/12/19 13:17:34;;;;;;;10.50;6.07;;;;;;;8.05;96.55;101733.38;6031474;29;20218;-78
2020/12/19 13:20:37;;;;;;;6.38;5.65;;;;;;;8.04;95.75;101726.25;6031078;29;20207;-77
2020/12/19 13:23:41;;;;;;;10.40;6.22;;;;;;;7.89;95.91;101723.44;6031937;29;20758;-80
2020/12/19 13:26:45;;;;;;;10.68;6.55;;;;;;;7.28;97.06;101664.50;6012363;29;20222;-79
2020/12/19 13:29:50;;;;;;;8.15;6.30;;;;;;;7.75;96.84;101731.50;6027841;29;20211;-77
2020/12/19 13:32:57;;;;;;;11.90;6.20;;;;;;;7.76;96.70;101744.06;6029756;29;20207;-80
2020/12/19 13:36:01;;;;;;;8.80;6.32;;;;;;;7.73;97.26;101728.13;6030187;29;20214;-81
2020/12/19 13:39:08;;;;;;;12.03;6.23;;;;;;;7.68;96.81;101725.09;6028174;29;20214;-79
2020/12/19 13:42:16;;;;;;;6.50;5.90;;;;;;;7.72;96.91;101737.28;6026775;29;20286;-79
2020/12/19 13:45:28;;;;;;;7.83;6.27;;;;;;;7.63;96.63;101727.50;6029708;29;20498;-78
2020/12/19 13:48:33;;;;;;;8.03;6.60;;;;;;;7.55;96.68;101726.50;6030299;29;20571;-78
2020/12/19 13:51:37;;;;;;;7.65;6.07;;;;;;;7.56;96.60;101739.06;6031101;29;20222;-77
2020/12/19 13:54:45;;;;;;;11.77;6.50;;;;;;;7.46;97.22;101734.84;6031443;29;20342;-80
2020/12/19 13:57:49;;;;;;;7.13;6.45;;;;;;;7.58;97.27;101737.00;6049860;29;20209;-83
2020/12/19 14:00:53;;;;;;;9.70;6.22;;;;;;;7.72;95.57;101729.16;6029083;29;20214;-79
2020/12/19 14:04:02;;;;;;;7.95;6.35;;;;;;;7.61;95.99;101734.97;6034847;29;20662;-78
2020/12/19 14:07:10;;;;;;;7.03;6.40;;;;;;;7.55;95.82;101726.50;6023102;29;20362;-78
2020/12/19 14:10:18;;;;;;;6.93;5.90;;;;;;;7.26;96.29;101698.28;6026943;29;20327;-78
2020/12/19 14:13:37;;;;;;;7.07;6.05;;;;;;;7.33;96.67;101721.84;6029246;29;20195;-77
2020/12/19 14:16:41;;;;;;;7.40;6.00;;;;;;;7.26;97.11;101723.56;6022641;29;20209;-79
2020/12/19 14:19:45;;;;;;;7.55;6.60;;;;;;;7.11;97.60;101733.44;6026524;29;20295;-79
2020/12/19 14:22:48;;;;;;;7.27;6.37;;;;;;;7.14;97.80;101727.66;6029993;29;20262;-80
2020/12/19 14:25:52;;;;;;;8.05;6.50;;;;;;;7.03;98.04;101725.31;6042755;29;20228;-79
2020/12/19 14:28:55;;;;;;;7.53;6.73;;;;;;;7.02;98.20;101739.88;6037487;29;20210;-79